Aviation Digital Data Service (ADDS)

Output produced by METARs form (1231 UTC 15 July 2020)
found at http://www.aviationweather.gov/metar/data/
 
METAR text: NWWW 151230Z AUTO 00000KT 9999 OVC017 21/19 Q1012 TEMPO 4000 SHRA BKN009 FEW018TCU BKN030
Conditions at: NWWW (LA TONTOUTA NLLE, WS) observed 1230 UTC 15 July 2020
Temperature: 21.0°C (70°F)
Dewpoint: 19.0°C (66°F) [RH = 88%]
Pressure (altimeter): 29.88 inches Hg (1012.0 mb)
Winds: calm
Visibility: 6 or more miles (10+ km)
Ceiling: 1700 feet AGL
Clouds: overcast cloud deck at 1700 feet AGL
Weather: no significant weather observed at this time

METAR text: NWWW 151200Z AUTO 30002KT 9999 OVC018 21/20 Q1012 TEMPO 4000 SHRA BKN009 FEW018TCU BKN030
Conditions at: NWWW (LA TONTOUTA NLLE, WS) observed 1200 UTC 15 July 2020
Temperature: 21.0°C (70°F)
Dewpoint: 20.0°C (68°F) [RH = 94%]
Pressure (altimeter): 29.88 inches Hg (1012.0 mb)
Winds: from the WNW (300 degrees) at 2 MPH (2 knots; 1.0 m/s)
Visibility: 6 or more miles (10+ km)
Ceiling: 1800 feet AGL
Clouds: overcast cloud deck at 1800 feet AGL
Weather: no significant weather observed at this time

METAR text: NWWW 151130Z AUTO VRB02KT 9999 FEW010/// OVC017/// ///TCU 21/19 Q1012 TEMPO 4000 SHRA BKN009 FEW018TCU BKN030
Conditions at: NWWW (LA TONTOUTA NLLE, WS) observed 1130 UTC 15 July 2020
Temperature: 21.0°C (70°F)
Dewpoint: 19.0°C (66°F) [RH = 88%]
Pressure (altimeter): 29.88 inches Hg (1012.0 mb)
Winds: variable direction winds at 2 MPH (2 knots; 1.0 m/s)
Visibility: 6 or more miles (10+ km)
Ceiling: 1700 feet AGL
Clouds: few clouds at 1000 feet AGL
overcast cloud deck at 1700 feet AGL
Weather: no significant weather observed at this time

METAR text: NWWW 151100Z AUTO VRB02KT 9999 ////// 21/20 Q1012
Conditions at: NWWW (LA TONTOUTA NLLE, WS) observed 1100 UTC 15 July 2020
Temperature: 21.0°C (70°F)
Dewpoint: 20.0°C (68°F) [RH = 94%]
Pressure (altimeter): 29.88 inches Hg (1012.0 mb)
Winds: variable direction winds at 2 MPH (2 knots; 1.0 m/s)
Visibility: 6 or more miles (10+ km)
Ceiling: unknown
Clouds: missing
Weather: no significant weather observed at this time

METAR text: NWWW 151030Z AUTO 32003KT //// R11///// // OVC016/// ///CB 21/20 Q1012
Conditions at: NWWW (LA TONTOUTA NLLE, WS) observed 1030 UTC 15 July 2020
Temperature: 21.0°C (70°F)
Dewpoint: 20.0°C (68°F) [RH = 94%]
Pressure (altimeter): 29.88 inches Hg (1012.0 mb)
Winds: from the NW (320 degrees) at 3 MPH (3 knots; 1.5 m/s)
Visibility: missing
Ceiling: 1600 feet AGL
Clouds: overcast cloud deck at 1600 feet AGL
Weather: no significant weather observed at this time

METAR text: NWWW 151000Z AUTO 28004KT //// R11///// // OVC016/// ///TCU 21/20 Q1012
Conditions at: NWWW (LA TONTOUTA NLLE, WS) observed 1000 UTC 15 July 2020
Temperature: 21.0°C (70°F)
Dewpoint: 20.0°C (68°F) [RH = 94%]
Pressure (altimeter): 29.88 inches Hg (1012.0 mb)
Winds: from the W (280 degrees) at 5 MPH (4 knots; 2.1 m/s)
Visibility: missing
Ceiling: 1600 feet AGL
Clouds: overcast cloud deck at 1600 feet AGL
Weather: no significant weather observed at this time

METAR text: NWWW 150930Z AUTO 33003KT 270V360 9999 OVC012/// ///TCU 21/20 Q1012 BECMG SCT020 SCT050
Conditions at: NWWW (LA TONTOUTA NLLE, WS) observed 0930 UTC 15 July 2020
Temperature: 21.0°C (70°F)
Dewpoint: 20.0°C (68°F) [RH = 94%]
Pressure (altimeter): 29.88 inches Hg (1012.0 mb)
Winds: from the NNW (330 degrees) at 3 MPH (3 knots; 1.5 m/s)
Visibility: 6 or more miles (10+ km)
Ceiling: 1200 feet AGL
Clouds: overcast cloud deck at 1200 feet AGL
Weather: no significant weather observed at this time

METAR text: NWWW 150900Z AUTO 18002KT 9999 BKN014 OVC020 21/20 Q1012 TEMPO 4000 RA BECMG SCT020 SCT050
Conditions at: NWWW (LA TONTOUTA NLLE, WS) observed 0900 UTC 15 July 2020
Temperature: 21.0°C (70°F)
Dewpoint: 20.0°C (68°F) [RH = 94%]
Pressure (altimeter): 29.88 inches Hg (1012.0 mb)
Winds: from the S (180 degrees) at 2 MPH (2 knots; 1.0 m/s)
Visibility: 6 or more miles (10+ km)
Ceiling: 1400 feet AGL
Clouds: broken clouds at 1400 feet AGL
overcast cloud deck at 2000 feet AGL
Weather: no significant weather observed at this time

METAR text: NWWW 150830Z AUTO 00000KT 9999 FEW013/// OVC023/// ///TCU 21/20 Q1012 TEMPO 4000 RA BECMG SCT020 SCT050
Conditions at: NWWW (LA TONTOUTA NLLE, WS) observed 0830 UTC 15 July 2020
Temperature: 21.0°C (70°F)
Dewpoint: 20.0°C (68°F) [RH = 94%]
Pressure (altimeter): 29.88 inches Hg (1012.0 mb)
Winds: calm
Visibility: 6 or more miles (10+ km)
Ceiling: 2300 feet AGL
Clouds: few clouds at 1300 feet AGL
overcast cloud deck at 2300 feet AGL
Weather: no significant weather observed at this time

METAR text: NWWW 150800Z AUTO 00000KT 9999 FEW010 SCT028 21/20 Q1011 TEMPO 4000 RA BKN009
Conditions at: NWWW (LA TONTOUTA NLLE, WS) observed 0800 UTC 15 July 2020
Temperature: 21.0°C (70°F)
Dewpoint: 20.0°C (68°F) [RH = 94%]
Pressure (altimeter): 29.85 inches Hg (1011.0 mb)
Winds: calm
Visibility: 6 or more miles (10+ km)
Ceiling: at least 12,000 feet AGL
Clouds: few clouds at 1000 feet AGL
scattered clouds at 2800 feet AGL
Weather: no significant weather observed at this time

METAR text: NWWW 150730Z AUTO VRB02KT 9999 BKN011 OVC016 21/20 Q1011 TEMPO 4000 RA BKN009
Conditions at: NWWW (LA TONTOUTA NLLE, WS) observed 0730 UTC 15 July 2020
Temperature: 21.0°C (70°F)
Dewpoint: 20.0°C (68°F) [RH = 94%]
Pressure (altimeter): 29.85 inches Hg (1011.0 mb)
Winds: variable direction winds at 2 MPH (2 knots; 1.0 m/s)
Visibility: 6 or more miles (10+ km)
Ceiling: 1100 feet AGL
Clouds: broken clouds at 1100 feet AGL
overcast cloud deck at 1600 feet AGL
Weather: no significant weather observed at this time

METAR text: NWWW 150700Z AUTO 03002KT 9999 SCT013 BKN023 BKN030 22/20 Q1011 TEMPO 4000 RA BKN009
Conditions at: NWWW (LA TONTOUTA NLLE, WS) observed 0700 UTC 15 July 2020
Temperature: 22.0°C (72°F)
Dewpoint: 20.0°C (68°F) [RH = 88%]
Pressure (altimeter): 29.85 inches Hg (1011.0 mb)
Winds: from the NNE (30 degrees) at 2 MPH (2 knots; 1.0 m/s)
Visibility: 6 or more miles (10+ km)
Ceiling: 2300 feet AGL
Clouds: scattered clouds at 1300 feet AGL
broken clouds at 2300 feet AGL
broken clouds at 3000 feet AGL
Weather: no significant weather observed at this time

METAR text: NWWW 150630Z AUTO VRB02KT 9999 BKN021 BKN032 BKN042 22/20 Q1011 TEMPO 4000 RA BKN009
Conditions at: NWWW (LA TONTOUTA NLLE, WS) observed 0630 UTC 15 July 2020
Temperature: 22.0°C (72°F)
Dewpoint: 20.0°C (68°F) [RH = 88%]
Pressure (altimeter): 29.85 inches Hg (1011.0 mb)
Winds: variable direction winds at 2 MPH (2 knots; 1.0 m/s)
Visibility: 6 or more miles (10+ km)
Ceiling: 2100 feet AGL
Clouds: broken clouds at 2100 feet AGL
broken clouds at 3200 feet AGL
broken clouds at 4200 feet AGL
Weather: no significant weather observed at this time

METAR text: NWWW 150600Z AUTO 26004KT 9999 FEW023 BKN031 OVC050 22/19 Q1010 TEMPO 4000 RA BKN014
Conditions at: NWWW (LA TONTOUTA NLLE, WS) observed 0600 UTC 15 July 2020
Temperature: 22.0°C (72°F)
Dewpoint: 19.0°C (66°F) [RH = 83%]
Pressure (altimeter): 29.82 inches Hg (1010.0 mb)
Winds: from the W (260 degrees) at 5 MPH (4 knots; 2.1 m/s)
Visibility: 6 or more miles (10+ km)
Ceiling: 3100 feet AGL
Clouds: few clouds at 2300 feet AGL
broken clouds at 3100 feet AGL
overcast cloud deck at 5000 feet AGL
Weather: no significant weather observed at this time

METAR text: NWWW 150530Z AUTO 24008KT 210V270 9999 FEW013 BKN026 BKN050 23/20 Q1010 TEMPO 4000 RA BKN014
Conditions at: NWWW (LA TONTOUTA NLLE, WS) observed 0530 UTC 15 July 2020
Temperature: 23.0°C (73°F)
Dewpoint: 20.0°C (68°F) [RH = 83%]
Pressure (altimeter): 29.82 inches Hg (1010.0 mb)
Winds: from the WSW (240 degrees) at 9 MPH (8 knots; 4.1 m/s)
Visibility: 6 or more miles (10+ km)
Ceiling: 2600 feet AGL
Clouds: few clouds at 1300 feet AGL
broken clouds at 2600 feet AGL
broken clouds at 5000 feet AGL
Weather: no significant weather observed at this time

METAR text: NWWW 150500Z AUTO 23008KT 9999 SCT015 BKN027 BKN040 25/20 Q1010 TEMPO 4000 RA BKN014
Conditions at: NWWW (LA TONTOUTA NLLE, WS) observed 0500 UTC 15 July 2020
Temperature: 25.0°C (77°F)
Dewpoint: 20.0°C (68°F) [RH = 74%]
Pressure (altimeter): 29.82 inches Hg (1010.0 mb)
Winds: from the SW (230 degrees) at 9 MPH (8 knots; 4.1 m/s)
Visibility: 6 or more miles (10+ km)
Ceiling: 2700 feet AGL
Clouds: scattered clouds at 1500 feet AGL
broken clouds at 2700 feet AGL
broken clouds at 4000 feet AGL
Weather: no significant weather observed at this time

METAR text: NWWW 150430Z AUTO 27009KT 220V290 9999 SCT027 SCT034 BKN044 24/19 Q1010 TEMPO 4000 RA BKN014
Conditions at: NWWW (LA TONTOUTA NLLE, WS) observed 0430 UTC 15 July 2020
Temperature: 24.0°C (75°F)
Dewpoint: 19.0°C (66°F) [RH = 74%]
Pressure (altimeter): 29.82 inches Hg (1010.0 mb)
Winds: from the W (270 degrees) at 10 MPH (9 knots; 4.6 m/s)
Visibility: 6 or more miles (10+ km)
Ceiling: 4400 feet AGL
Clouds: scattered clouds at 2700 feet AGL
scattered clouds at 3400 feet AGL
broken clouds at 4400 feet AGL
Weather: no significant weather observed at this time

METAR text: NWWW 150400Z AUTO 26008KT 220V290 9999 FEW020 SCT027 BKN039 25/19 Q1010 TEMPO 4000 RA BKN014
Conditions at: NWWW (LA TONTOUTA NLLE, WS) observed 0400 UTC 15 July 2020
Temperature: 25.0°C (77°F)
Dewpoint: 19.0°C (66°F) [RH = 69%]
Pressure (altimeter): 29.82 inches Hg (1010.0 mb)
Winds: from the W (260 degrees) at 9 MPH (8 knots; 4.1 m/s)
Visibility: 6 or more miles (10+ km)
Ceiling: 3900 feet AGL
Clouds: few clouds at 2000 feet AGL
scattered clouds at 2700 feet AGL
broken clouds at 3900 feet AGL
Weather: no significant weather observed at this time

METAR text: NWWW 150330Z AUTO 26007KT 220V280 9999 BKN029 BKN042 25/19 Q1010 TEMPO 4000 RA BKN014
Conditions at: NWWW (LA TONTOUTA NLLE, WS) observed 0330 UTC 15 July 2020
Temperature: 25.0°C (77°F)
Dewpoint: 19.0°C (66°F) [RH = 69%]
Pressure (altimeter): 29.82 inches Hg (1010.0 mb)
Winds: from the W (260 degrees) at 8 MPH (7 knots; 3.6 m/s)
Visibility: 6 or more miles (10+ km)
Ceiling: 2900 feet AGL
Clouds: broken clouds at 2900 feet AGL
broken clouds at 4200 feet AGL
Weather: no significant weather observed at this time

METAR text: NWWW 150300Z AUTO 26008KT 9999 SCT031 BKN046 25/18 Q1010 TEMPO 4000 RA BKN014
Conditions at: NWWW (LA TONTOUTA NLLE, WS) observed 0300 UTC 15 July 2020
Temperature: 25.0°C (77°F)
Dewpoint: 18.0°C (64°F) [RH = 65%]
Pressure (altimeter): 29.82 inches Hg (1010.0 mb)
Winds: from the W (260 degrees) at 9 MPH (8 knots; 4.1 m/s)
Visibility: 6 or more miles (10+ km)
Ceiling: 4600 feet AGL
Clouds: scattered clouds at 3100 feet AGL
broken clouds at 4600 feet AGL
Weather: no significant weather observed at this time

METAR text: NWWW 150230Z AUTO 27006KT 240V320 9999 BKN033 OVC046 25/18 Q1010 TEMPO 4000 RA BKN014
Conditions at: NWWW (LA TONTOUTA NLLE, WS) observed 0230 UTC 15 July 2020
Temperature: 25.0°C (77°F)
Dewpoint: 18.0°C (64°F) [RH = 65%]
Pressure (altimeter): 29.82 inches Hg (1010.0 mb)
Winds: from the W (270 degrees) at 7 MPH (6 knots; 3.1 m/s)
Visibility: 6 or more miles (10+ km)
Ceiling: 3300 feet AGL
Clouds: broken clouds at 3300 feet AGL
overcast cloud deck at 4600 feet AGL
Weather: no significant weather observed at this time

METAR text: NWWW 150200Z AUTO 26006KT 210V300 9999 BKN033 OVC048 25/17 Q1010 TEMPO 4000 RA BKN014
Conditions at: NWWW (LA TONTOUTA NLLE, WS) observed 0200 UTC 15 July 2020
Temperature: 25.0°C (77°F)
Dewpoint: 17.0°C (63°F) [RH = 61%]
Pressure (altimeter): 29.82 inches Hg (1010.0 mb)
Winds: from the W (260 degrees) at 7 MPH (6 knots; 3.1 m/s)
Visibility: 6 or more miles (10+ km)
Ceiling: 3300 feet AGL
Clouds: broken clouds at 3300 feet AGL
overcast cloud deck at 4800 feet AGL
Weather: no significant weather observed at this time

METAR text: NWWW 150130Z AUTO 25009KT 220V290 9999 BKN035 BKN048 25/17 Q1011 TEMPO 4000 RA BKN014
Conditions at: NWWW (LA TONTOUTA NLLE, WS) observed 0130 UTC 15 July 2020
Temperature: 25.0°C (77°F)
Dewpoint: 17.0°C (63°F) [RH = 61%]
Pressure (altimeter): 29.85 inches Hg (1011.0 mb)
Winds: from the WSW (250 degrees) at 10 MPH (9 knots; 4.6 m/s)
Visibility: 6 or more miles (10+ km)
Ceiling: 3500 feet AGL
Clouds: broken clouds at 3500 feet AGL
broken clouds at 4800 feet AGL
Weather: no significant weather observed at this time

METAR text: NWWW 150100Z AUTO 26007KT 210V290 9999 FEW037 25/17 Q1011 TEMPO 4000 RA BKN014
Conditions at: NWWW (LA TONTOUTA NLLE, WS) observed 0100 UTC 15 July 2020
Temperature: 25.0°C (77°F)
Dewpoint: 17.0°C (63°F) [RH = 61%]
Pressure (altimeter): 29.85 inches Hg (1011.0 mb)
Winds: from the W (260 degrees) at 8 MPH (7 knots; 3.6 m/s)
Visibility: 6 or more miles (10+ km)
Ceiling: at least 12,000 feet AGL
Clouds: few clouds at 3700 feet AGL
Weather: no significant weather observed at this time

METAR text: NWWW 150030Z AUTO 25005KT 190V290 CAVOK 25/17 Q1012 TEMPO 4000 RA BKN014
Conditions at: NWWW (LA TONTOUTA NLLE, WS) observed 0030 UTC 15 July 2020
Temperature: 25.0°C (77°F)
Dewpoint: 17.0°C (63°F) [RH = 61%]
Pressure (altimeter): 29.88 inches Hg (1012.0 mb)
Winds: from the WSW (250 degrees) at 6 MPH (5 knots; 2.6 m/s)
Visibility: 6 or more miles (10+ km)
Ceiling: ceiling and visibility are OK
Clouds: unknown
Weather: no significant weather observed at this time

METAR text: NWWW 150000Z AUTO 27008KT CAVOK 24/18 Q1012 NOSIG
Conditions at: NWWW (LA TONTOUTA NLLE, WS) observed 0000 UTC 15 July 2020
Temperature: 24.0°C (75°F)
Dewpoint: 18.0°C (64°F) [RH = 69%]
Pressure (altimeter): 29.88 inches Hg (1012.0 mb)
Winds: from the W (270 degrees) at 9 MPH (8 knots; 4.1 m/s)
Visibility: 6 or more miles (10+ km)
Ceiling: ceiling and visibility are OK
Clouds: unknown
Weather: no significant weather observed at this time

METAR text: NWWW 142330Z AUTO VRB02KT CAVOK 23/18 Q1012 NOSIG
Conditions at: NWWW (LA TONTOUTA NLLE, WS) observed 2330 UTC 14 July 2020
Temperature: 23.0°C (73°F)
Dewpoint: 18.0°C (64°F) [RH = 73%]
Pressure (altimeter): 29.88 inches Hg (1012.0 mb)
Winds: variable direction winds at 2 MPH (2 knots; 1.0 m/s)
Visibility: 6 or more miles (10+ km)
Ceiling: ceiling and visibility are OK
Clouds: unknown
Weather: no significant weather observed at this time

METAR text: NWWW 142300Z AUTO 29003KT 240V340 CAVOK 23/19 Q1012 NOSIG
Conditions at: NWWW (LA TONTOUTA NLLE, WS) observed 2300 UTC 14 July 2020
Temperature: 23.0°C (73°F)
Dewpoint: 19.0°C (66°F) [RH = 78%]
Pressure (altimeter): 29.88 inches Hg (1012.0 mb)
Winds: from the WNW (290 degrees) at 3 MPH (3 knots; 1.5 m/s)
Visibility: 6 or more miles (10+ km)
Ceiling: ceiling and visibility are OK
Clouds: unknown
Weather: no significant weather observed at this time

METAR text: NWWW 142230Z AUTO 34005KT CAVOK 22/19 Q1013 NOSIG
Conditions at: NWWW (LA TONTOUTA NLLE, WS) observed 2230 UTC 14 July 2020
Temperature: 22.0°C (72°F)
Dewpoint: 19.0°C (66°F) [RH = 83%]
Pressure (altimeter): 29.91 inches Hg (1013.0 mb)
Winds: from the NNW (340 degrees) at 6 MPH (5 knots; 2.6 m/s)
Visibility: 6 or more miles (10+ km)
Ceiling: ceiling and visibility are OK
Clouds: unknown
Weather: no significant weather observed at this time

METAR text: NWWW 142200Z AUTO VRB02KT CAVOK 22/20 Q1013 NOSIG
Conditions at: NWWW (LA TONTOUTA NLLE, WS) observed 2200 UTC 14 July 2020
Temperature: 22.0°C (72°F)
Dewpoint: 20.0°C (68°F) [RH = 88%]
Pressure (altimeter): 29.91 inches Hg (1013.0 mb)
Winds: variable direction winds at 2 MPH (2 knots; 1.0 m/s)
Visibility: 6 or more miles (10+ km)
Ceiling: ceiling and visibility are OK
Clouds: unknown
Weather: no significant weather observed at this time

METAR text: NWWW 142130Z AUTO VRB01KT CAVOK 21/19 Q1013 NOSIG
Conditions at: NWWW (LA TONTOUTA NLLE, WS) observed 2130 UTC 14 July 2020
Temperature: 21.0°C (70°F)
Dewpoint: 19.0°C (66°F) [RH = 88%]
Pressure (altimeter): 29.91 inches Hg (1013.0 mb)
Winds: variable direction winds at 1 MPH (1 knots; 0.5 m/s)
Visibility: 6 or more miles (10+ km)
Ceiling: ceiling and visibility are OK
Clouds: unknown
Weather: no significant weather observed at this time

METAR text: NWWW 142100Z AUTO VRB02KT CAVOK 20/19 Q1012 NOSIG
Conditions at: NWWW (LA TONTOUTA NLLE, WS) observed 2100 UTC 14 July 2020
Temperature: 20.0°C (68°F)
Dewpoint: 19.0°C (66°F) [RH = 94%]
Pressure (altimeter): 29.88 inches Hg (1012.0 mb)
Winds: variable direction winds at 2 MPH (2 knots; 1.0 m/s)
Visibility: 6 or more miles (10+ km)
Ceiling: ceiling and visibility are OK
Clouds: unknown
Weather: no significant weather observed at this time

METAR text: NWWW 142030Z AUTO VRB03KT CAVOK 19/18 Q1012 NOSIG
Conditions at: NWWW (LA TONTOUTA NLLE, WS) observed 2030 UTC 14 July 2020
Temperature: 19.0°C (66°F)
Dewpoint: 18.0°C (64°F) [RH = 94%]
Pressure (altimeter): 29.88 inches Hg (1012.0 mb)
Winds: variable direction winds at 3 MPH (3 knots; 1.5 m/s)
Visibility: 6 or more miles (10+ km)
Ceiling: ceiling and visibility are OK
Clouds: unknown
Weather: no significant weather observed at this time

METAR text: NWWW 142000Z AUTO 08004KT 010V150 CAVOK 19/18 Q1012 NOSIG
Conditions at: NWWW (LA TONTOUTA NLLE, WS) observed 2000 UTC 14 July 2020
Temperature: 19.0°C (66°F)
Dewpoint: 18.0°C (64°F) [RH = 94%]
Pressure (altimeter): 29.88 inches Hg (1012.0 mb)
Winds: from the E (80 degrees) at 5 MPH (4 knots; 2.1 m/s)
Visibility: 6 or more miles (10+ km)
Ceiling: ceiling and visibility are OK
Clouds: unknown
Weather: no significant weather observed at this time

METAR text: NWWW 141930Z AUTO VRB02KT CAVOK 19/18 Q1012 NOSIG
Conditions at: NWWW (LA TONTOUTA NLLE, WS) observed 1930 UTC 14 July 2020
Temperature: 19.0°C (66°F)
Dewpoint: 18.0°C (64°F) [RH = 94%]
Pressure (altimeter): 29.88 inches Hg (1012.0 mb)
Winds: variable direction winds at 2 MPH (2 knots; 1.0 m/s)
Visibility: 6 or more miles (10+ km)
Ceiling: ceiling and visibility are OK
Clouds: unknown
Weather: no significant weather observed at this time

METAR text: NWWW 141900Z AUTO VRB03KT CAVOK 19/18 Q1012 TEMPO 4000 RA BKN014
Conditions at: NWWW (LA TONTOUTA NLLE, WS) observed 1900 UTC 14 July 2020
Temperature: 19.0°C (66°F)
Dewpoint: 18.0°C (64°F) [RH = 94%]
Pressure (altimeter): 29.88 inches Hg (1012.0 mb)
Winds: variable direction winds at 3 MPH (3 knots; 1.5 m/s)
Visibility: 6 or more miles (10+ km)
Ceiling: ceiling and visibility are OK
Clouds: unknown
Weather: no significant weather observed at this time

METAR text: NWWW 141830Z AUTO VRB01KT CAVOK 19/18 Q1012 TEMPO 4000 RA BKN014
Conditions at: NWWW (LA TONTOUTA NLLE, WS) observed 1830 UTC 14 July 2020
Temperature: 19.0°C (66°F)
Dewpoint: 18.0°C (64°F) [RH = 94%]
Pressure (altimeter): 29.88 inches Hg (1012.0 mb)
Winds: variable direction winds at 1 MPH (1 knots; 0.5 m/s)
Visibility: 6 or more miles (10+ km)
Ceiling: ceiling and visibility are OK
Clouds: unknown
Weather: no significant weather observed at this time

METAR text: NWWW 141800Z AUTO VRB02KT CAVOK 19/18 Q1012 TEMPO 4000 RA BKN014
Conditions at: NWWW (LA TONTOUTA NLLE, WS) observed 1800 UTC 14 July 2020
Temperature: 19.0°C (66°F)
Dewpoint: 18.0°C (64°F) [RH = 94%]
Pressure (altimeter): 29.88 inches Hg (1012.0 mb)
Winds: variable direction winds at 2 MPH (2 knots; 1.0 m/s)
Visibility: 6 or more miles (10+ km)
Ceiling: ceiling and visibility are OK
Clouds: unknown
Weather: no significant weather observed at this time

METAR text: NWWW 141730Z AUTO VRB03KT CAVOK 19/18 Q1012 TEMPO 4000 RA BKN014
Conditions at: NWWW (LA TONTOUTA NLLE, WS) observed 1730 UTC 14 July 2020
Temperature: 19.0°C (66°F)
Dewpoint: 18.0°C (64°F) [RH = 94%]
Pressure (altimeter): 29.88 inches Hg (1012.0 mb)
Winds: variable direction winds at 3 MPH (3 knots; 1.5 m/s)
Visibility: 6 or more miles (10+ km)
Ceiling: ceiling and visibility are OK
Clouds: unknown
Weather: no significant weather observed at this time

METAR text: NWWW 141700Z AUTO 29005KT 9999 FEW012 OVC120 19/19 Q1012 TEMPO 4000 RA BKN014
Conditions at: NWWW (LA TONTOUTA NLLE, WS) observed 1700 UTC 14 July 2020
Temperature: 19.0°C (66°F)
Dewpoint: 19.0°C (66°F) [RH = 100%]
Pressure (altimeter): 29.88 inches Hg (1012.0 mb)
Winds: from the WNW (290 degrees) at 6 MPH (5 knots; 2.6 m/s)
Visibility: 6 or more miles (10+ km)
Ceiling: 12000 feet AGL
Clouds: few clouds at 1200 feet AGL
overcast cloud deck at 12000 feet AGL
Weather: no significant weather observed at this time

METAR text: NWWW 141630Z AUTO VRB02KT 9999 SCT068/// BKN088/// OVC110/// ///TCU 19/18 Q1012 TEMPO 4000 RA BKN014
Conditions at: NWWW (LA TONTOUTA NLLE, WS) observed 1630 UTC 14 July 2020
Temperature: 19.0°C (66°F)
Dewpoint: 18.0°C (64°F) [RH = 94%]
Pressure (altimeter): 29.88 inches Hg (1012.0 mb)
Winds: variable direction winds at 2 MPH (2 knots; 1.0 m/s)
Visibility: 6 or more miles (10+ km)
Ceiling: 8800 feet AGL
Clouds: scattered clouds at 6800 feet AGL
broken clouds at 8800 feet AGL
overcast cloud deck at 11000 feet AGL
Weather: no significant weather observed at this time

METAR text: NWWW 141600Z AUTO VRB03KT 9999 -RA FEW040/// SCT080/// OVC120/// ///CB 19/19 Q1013 TEMPO 4000 RA BKN014
Conditions at: NWWW (LA TONTOUTA NLLE, WS) observed 1600 UTC 14 July 2020
Temperature: 19.0°C (66°F)
Dewpoint: 19.0°C (66°F) [RH = 100%]
Pressure (altimeter): 29.91 inches Hg (1013.0 mb)
Winds: variable direction winds at 3 MPH (3 knots; 1.5 m/s)
Visibility: 6 or more miles (10+ km)
Ceiling: 12000 feet AGL
Clouds: few clouds at 4000 feet AGL
scattered clouds at 8000 feet AGL
overcast cloud deck at 12000 feet AGL
Weather: -RA  (light rain)

METAR text: NWWW 141530Z AUTO VRB03KT 6000 RA FEW017/// BKN070/// OVC092/// ///TCU 19/19 Q1014 TEMPO 4000 RA BKN014
Conditions at: NWWW (LA TONTOUTA NLLE, WS) observed 1530 UTC 14 July 2020
Temperature: 19.0°C (66°F)
Dewpoint: 19.0°C (66°F) [RH = 100%]
Pressure (altimeter): 29.94 inches Hg (1014.0 mb)
Winds: variable direction winds at 3 MPH (3 knots; 1.5 m/s)
Visibility: 4 miles ( 6 km)
Ceiling: 7000 feet AGL
Clouds: few clouds at 1700 feet AGL
broken clouds at 7000 feet AGL
overcast cloud deck at 9200 feet AGL
Weather: RA  (moderate rain)

METAR text: NWWW 141500Z AUTO 32003KT 270V010 7000 -RA ///TCU 20/19 Q1014 TEMPO 4000 RA BKN014
Conditions at: NWWW (LA TONTOUTA NLLE, WS) observed 1500 UTC 14 July 2020
Temperature: 20.0°C (68°F)
Dewpoint: 19.0°C (66°F) [RH = 94%]
Pressure (altimeter): 29.94 inches Hg (1014.0 mb)
Winds: from the NW (320 degrees) at 3 MPH (3 knots; 1.5 m/s)
Visibility: 4 miles ( 7 km)
Ceiling: unknown
Clouds: missing
Weather: -RA  (light rain)

METAR text: NWWW 141430Z AUTO 06003KT 020V100 9000 -RA SCT021/// SCT072/// BKN084/// ///CB 19/19 Q1014 TEMPO 4000 RA BKN014
Conditions at: NWWW (LA TONTOUTA NLLE, WS) observed 1430 UTC 14 July 2020
Temperature: 19.0°C (66°F)
Dewpoint: 19.0°C (66°F) [RH = 100%]
Pressure (altimeter): 29.94 inches Hg (1014.0 mb)
Winds: from the ENE (60 degrees) at 3 MPH (3 knots; 1.5 m/s)
Visibility: 6 miles ( 9 km)
Ceiling: 8400 feet AGL
Clouds: scattered clouds at 2100 feet AGL
scattered clouds at 7200 feet AGL
broken clouds at 8400 feet AGL
Weather: -RA  (light rain)

METAR text: NWWW 141400Z AUTO 00000KT 9999 -RA FEW019/// SCT025/// BKN070/// ///TCU 19/19 Q1014 TEMPO 4000 RA BKN014
Conditions at: NWWW (LA TONTOUTA NLLE, WS) observed 1400 UTC 14 July 2020
Temperature: 19.0°C (66°F)
Dewpoint: 19.0°C (66°F) [RH = 100%]
Pressure (altimeter): 29.94 inches Hg (1014.0 mb)
Winds: calm
Visibility: 6 or more miles (10+ km)
Ceiling: 7000 feet AGL
Clouds: few clouds at 1900 feet AGL
scattered clouds at 2500 feet AGL
broken clouds at 7000 feet AGL
Weather: -RA  (light rain)

METAR text: NWWW 141330Z AUTO 00000KT 9999 -RA BKN070/// OVC084/// ///TCU 20/19 Q1014 TEMPO 4000 RA BKN014
Conditions at: NWWW (LA TONTOUTA NLLE, WS) observed 1330 UTC 14 July 2020
Temperature: 20.0°C (68°F)
Dewpoint: 19.0°C (66°F) [RH = 94%]
Pressure (altimeter): 29.94 inches Hg (1014.0 mb)
Winds: calm
Visibility: 6 or more miles (10+ km)
Ceiling: 7000 feet AGL
Clouds: broken clouds at 7000 feet AGL
overcast cloud deck at 8400 feet AGL
Weather: -RA  (light rain)

METAR text: NWWW 141300Z AUTO 00000KT 9999 FEW012 OVC070 20/19 Q1015 TEMPO 4000 RA BKN014
Conditions at: NWWW (LA TONTOUTA NLLE, WS) observed 1300 UTC 14 July 2020
Temperature: 20.0°C (68°F)
Dewpoint: 19.0°C (66°F) [RH = 94%]
Pressure (altimeter): 29.97 inches Hg (1015.0 mb)
Winds: calm
Visibility: 6 or more miles (10+ km)
Ceiling: 7000 feet AGL
Clouds: few clouds at 1200 feet AGL
overcast cloud deck at 7000 feet AGL
Weather: no significant weather observed at this time

METAR text: NWWW 141230Z AUTO 03002KT CAVOK 20/19 Q1014 TEMPO 4000 RA BKN014
Conditions at: NWWW (LA TONTOUTA NLLE, WS) observed 1230 UTC 14 July 2020
Temperature: 20.0°C (68°F)
Dewpoint: 19.0°C (66°F) [RH = 94%]
Pressure (altimeter): 29.94 inches Hg (1014.0 mb)
Winds: from the NNE (30 degrees) at 2 MPH (2 knots; 1.0 m/s)
Visibility: 6 or more miles (10+ km)
Ceiling: ceiling and visibility are OK
Clouds: unknown
Weather: no significant weather observed at this time

METAR text: NWWW 141200Z AUTO 04004KT 360V060 9999 -RA FEW014/// BKN098/// OVC160/// ///CB 20/19 Q1015 BECMG RA FEW040 OVC130
Conditions at: NWWW (LA TONTOUTA NLLE, WS) observed 1200 UTC 14 July 2020
Temperature: 20.0°C (68°F)
Dewpoint: 19.0°C (66°F) [RH = 94%]
Pressure (altimeter): 29.97 inches Hg (1015.0 mb)
Winds: from the NE (40 degrees) at 5 MPH (4 knots; 2.1 m/s)
Visibility: 6 or more miles (10+ km)
Ceiling: 9800 feet AGL
Clouds: few clouds at 1400 feet AGL
broken clouds at 9800 feet AGL
overcast cloud deck at 16000 feet AGL
Weather: -RA  (light rain)

METAR text: NWWW 141130Z AUTO 05005KT 9999 -RA FEW048/// BKN100/// BKN140/// ///CB 20/19 Q1015 BECMG RA FEW040 OVC130
Conditions at: NWWW (LA TONTOUTA NLLE, WS) observed 1130 UTC 14 July 2020
Temperature: 20.0°C (68°F)
Dewpoint: 19.0°C (66°F) [RH = 94%]
Pressure (altimeter): 29.97 inches Hg (1015.0 mb)
Winds: from the NE (50 degrees) at 6 MPH (5 knots; 2.6 m/s)
Visibility: 6 or more miles (10+ km)
Ceiling: 10000 feet AGL
Clouds: few clouds at 4800 feet AGL
broken clouds at 10000 feet AGL
broken clouds at 14000 feet AGL
Weather: -RA  (light rain)

METAR text: NWWW 141100Z AUTO 35004KT 300V030 9999 -RA ///TCU 19/19 Q1015 BECMG RA FEW040 OVC130
Conditions at: NWWW (LA TONTOUTA NLLE, WS) observed 1100 UTC 14 July 2020
Temperature: 19.0°C (66°F)
Dewpoint: 19.0°C (66°F) [RH = 100%]
Pressure (altimeter): 29.97 inches Hg (1015.0 mb)
Winds: from the N (350 degrees) at 5 MPH (4 knots; 2.1 m/s)
Visibility: 6 or more miles (10+ km)
Ceiling: unknown
Clouds: missing
Weather: -RA  (light rain)

METAR text: NWWW 141030Z AUTO 21004KT 180V240 9999 -RA FEW058/// OVC130/// ///CB 19/19 Q1014 BECMG RA FEW040 OVC130
Conditions at: NWWW (LA TONTOUTA NLLE, WS) observed 1030 UTC 14 July 2020
Temperature: 19.0°C (66°F)
Dewpoint: 19.0°C (66°F) [RH = 100%]
Pressure (altimeter): 29.94 inches Hg (1014.0 mb)
Winds: from the SSW (210 degrees) at 5 MPH (4 knots; 2.1 m/s)
Visibility: 6 or more miles (10+ km)
Ceiling: 13000 feet AGL
Clouds: few clouds at 5800 feet AGL
overcast cloud deck at 13000 feet AGL
Weather: -RA  (light rain)

METAR text: NWWW 141000Z AUTO 13003KT 090V190 9999 -RA ///TCU 20/18 Q1013 BECMG RA FEW040 OVC130
Conditions at: NWWW (LA TONTOUTA NLLE, WS) observed 1000 UTC 14 July 2020
Temperature: 20.0°C (68°F)
Dewpoint: 18.0°C (64°F) [RH = 88%]
Pressure (altimeter): 29.91 inches Hg (1013.0 mb)
Winds: from the SE (130 degrees) at 3 MPH (3 knots; 1.5 m/s)
Visibility: 6 or more miles (10+ km)
Ceiling: unknown
Clouds: missing
Weather: -RA  (light rain)

METAR text: NWWW 140930Z AUTO VRB02KT 9999 -RA ///CB 20/18 Q1014 BECMG RA FEW040 OVC130
Conditions at: NWWW (LA TONTOUTA NLLE, WS) observed 0930 UTC 14 July 2020
Temperature: 20.0°C (68°F)
Dewpoint: 18.0°C (64°F) [RH = 88%]
Pressure (altimeter): 29.94 inches Hg (1014.0 mb)
Winds: variable direction winds at 2 MPH (2 knots; 1.0 m/s)
Visibility: 6 or more miles (10+ km)
Ceiling: unknown
Clouds: missing
Weather: -RA  (light rain)

METAR text: NWWW 140900Z AUTO 03004KT 9999 -RA ///CB 20/18 Q1015 BECMG RA FEW040 OVC130
Conditions at: NWWW (LA TONTOUTA NLLE, WS) observed 0900 UTC 14 July 2020
Temperature: 20.0°C (68°F)
Dewpoint: 18.0°C (64°F) [RH = 88%]
Pressure (altimeter): 29.97 inches Hg (1015.0 mb)
Winds: from the NNE (30 degrees) at 5 MPH (4 knots; 2.1 m/s)
Visibility: 6 or more miles (10+ km)
Ceiling: unknown
Clouds: missing
Weather: -RA  (light rain)

METAR text: NWWW 140830Z AUTO VRB03KT 9999 -RA FEW050/// OVC130/// ///TCU 21/18 Q1014 BECMG RA FEW040 OVC130
Conditions at: NWWW (LA TONTOUTA NLLE, WS) observed 0830 UTC 14 July 2020
Temperature: 21.0°C (70°F)
Dewpoint: 18.0°C (64°F) [RH = 83%]
Pressure (altimeter): 29.94 inches Hg (1014.0 mb)
Winds: variable direction winds at 3 MPH (3 knots; 1.5 m/s)
Visibility: 6 or more miles (10+ km)
Ceiling: 13000 feet AGL
Clouds: few clouds at 5000 feet AGL
overcast cloud deck at 13000 feet AGL
Weather: -RA  (light rain)

METAR text: NWWW 140800Z AUTO 30004KT 270V010 9999 -RA ///CB 21/18 Q1014 BECMG RA FEW040 OVC130
Conditions at: NWWW (LA TONTOUTA NLLE, WS) observed 0800 UTC 14 July 2020
Temperature: 21.0°C (70°F)
Dewpoint: 18.0°C (64°F) [RH = 83%]
Pressure (altimeter): 29.94 inches Hg (1014.0 mb)
Winds: from the WNW (300 degrees) at 5 MPH (4 knots; 2.1 m/s)
Visibility: 6 or more miles (10+ km)
Ceiling: unknown
Clouds: missing
Weather: -RA  (light rain)

METAR text: NWWW 140730Z AUTO VRB03KT 9999 -RA ///CB 22/18 Q1014 BECMG RA FEW040 OVC130
Conditions at: NWWW (LA TONTOUTA NLLE, WS) observed 0730 UTC 14 July 2020
Temperature: 22.0°C (72°F)
Dewpoint: 18.0°C (64°F) [RH = 78%]
Pressure (altimeter): 29.94 inches Hg (1014.0 mb)
Winds: variable direction winds at 3 MPH (3 knots; 1.5 m/s)
Visibility: 6 or more miles (10+ km)
Ceiling: unknown
Clouds: missing
Weather: -RA  (light rain)

METAR text: NWWW 140700Z AUTO 01002KT 9999 ///CB 22/17 Q1014 BECMG RA FEW040 OVC130
Conditions at: NWWW (LA TONTOUTA NLLE, WS) observed 0700 UTC 14 July 2020
Temperature: 22.0°C (72°F)
Dewpoint: 17.0°C (63°F) [RH = 73%]
Pressure (altimeter): 29.94 inches Hg (1014.0 mb)
Winds: from the N (10 degrees) at 2 MPH (2 knots; 1.0 m/s)
Visibility: 6 or more miles (10+ km)
Ceiling: unknown
Clouds: missing
Weather: no significant weather observed at this time

METAR text: NWWW 140630Z AUTO 05002KT 9999 ///CB 23/17 Q1014 BECMG RA FEW040 OVC130
Conditions at: NWWW (LA TONTOUTA NLLE, WS) observed 0630 UTC 14 July 2020
Temperature: 23.0°C (73°F)
Dewpoint: 17.0°C (63°F) [RH = 69%]
Pressure (altimeter): 29.94 inches Hg (1014.0 mb)
Winds: from the NE (50 degrees) at 2 MPH (2 knots; 1.0 m/s)
Visibility: 6 or more miles (10+ km)
Ceiling: unknown
Clouds: missing
Weather: no significant weather observed at this time

METAR text: NWWW 140600Z AUTO VRB02KT 9999 ///TCU 23/17 Q1014 BECMG RA FEW040 OVC130
Conditions at: NWWW (LA TONTOUTA NLLE, WS) observed 0600 UTC 14 July 2020
Temperature: 23.0°C (73°F)
Dewpoint: 17.0°C (63°F) [RH = 69%]
Pressure (altimeter): 29.94 inches Hg (1014.0 mb)
Winds: variable direction winds at 2 MPH (2 knots; 1.0 m/s)
Visibility: 6 or more miles (10+ km)
Ceiling: unknown
Clouds: missing
Weather: no significant weather observed at this time

METAR text: NWWW 140530Z AUTO VRB03KT CAVOK 23/17 Q1014 BECMG RA
Conditions at: NWWW (LA TONTOUTA NLLE, WS) observed 0530 UTC 14 July 2020
Temperature: 23.0°C (73°F)
Dewpoint: 17.0°C (63°F) [RH = 69%]
Pressure (altimeter): 29.94 inches Hg (1014.0 mb)
Winds: variable direction winds at 3 MPH (3 knots; 1.5 m/s)
Visibility: 6 or more miles (10+ km)
Ceiling: ceiling and visibility are OK
Clouds: unknown
Weather: no significant weather observed at this time

METAR text: NWWW 140500Z AUTO 15006KT 110V170 9999 FEW047 BKN130 BKN210 24/17 Q1013 TEMPO 3000 +RA
Conditions at: NWWW (LA TONTOUTA NLLE, WS) observed 0500 UTC 14 July 2020
Temperature: 24.0°C (75°F)
Dewpoint: 17.0°C (63°F) [RH = 65%]
Pressure (altimeter): 29.91 inches Hg (1013.0 mb)
Winds: from the SSE (150 degrees) at 7 MPH (6 knots; 3.1 m/s)
Visibility: 6 or more miles (10+ km)
Ceiling: 13000 feet AGL
Clouds: few clouds at 4700 feet AGL
broken clouds at 13000 feet AGL
broken clouds at 21000 feet AGL
Weather: no significant weather observed at this time

METAR text: NWWW 140430Z AUTO 14008KT 9999 BKN048 BKN054 24/17 Q1013 TEMPO 3000 +RA
Conditions at: NWWW (LA TONTOUTA NLLE, WS) observed 0430 UTC 14 July 2020
Temperature: 24.0°C (75°F)
Dewpoint: 17.0°C (63°F) [RH = 65%]
Pressure (altimeter): 29.91 inches Hg (1013.0 mb)
Winds: from the SE (140 degrees) at 9 MPH (8 knots; 4.1 m/s)
Visibility: 6 or more miles (10+ km)
Ceiling: 4800 feet AGL
Clouds: broken clouds at 4800 feet AGL
broken clouds at 5400 feet AGL
Weather: no significant weather observed at this time

METAR text: NWWW 140400Z AUTO 13009KT 9999 OVC052 24/16 Q1014 NOSIG
Conditions at: NWWW (LA TONTOUTA NLLE, WS) observed 0400 UTC 14 July 2020
Temperature: 24.0°C (75°F)
Dewpoint: 16.0°C (61°F) [RH = 61%]
Pressure (altimeter): 29.94 inches Hg (1014.0 mb)
Winds: from the SE (130 degrees) at 10 MPH (9 knots; 4.6 m/s)
Visibility: 6 or more miles (10+ km)
Ceiling: 5200 feet AGL
Clouds: overcast cloud deck at 5200 feet AGL
Weather: no significant weather observed at this time

METAR text: NWWW 140330Z AUTO 14010KT 9999 BKN054 BKN200 25/16 Q1014 NOSIG
Conditions at: NWWW (LA TONTOUTA NLLE, WS) observed 0330 UTC 14 July 2020
Temperature: 25.0°C (77°F)
Dewpoint: 16.0°C (61°F) [RH = 57%]
Pressure (altimeter): 29.94 inches Hg (1014.0 mb)
Winds: from the SE (140 degrees) at 12 MPH (10 knots; 5.1 m/s)
Visibility: 6 or more miles (10+ km)
Ceiling: 5400 feet AGL
Clouds: broken clouds at 5400 feet AGL
broken clouds at 20000 feet AGL
Weather: no significant weather observed at this time

METAR text: NWWW 140300Z AUTO 18005KT CAVOK 26/17 Q1013 NOSIG
Conditions at: NWWW (LA TONTOUTA NLLE, WS) observed 0300 UTC 14 July 2020
Temperature: 26.0°C (79°F)
Dewpoint: 17.0°C (63°F) [RH = 58%]
Pressure (altimeter): 29.91 inches Hg (1013.0 mb)
Winds: from the S (180 degrees) at 6 MPH (5 knots; 2.6 m/s)
Visibility: 6 or more miles (10+ km)
Ceiling: ceiling and visibility are OK
Clouds: unknown
Weather: no significant weather observed at this time

METAR text: NWWW 140230Z AUTO 19006KT 160V220 CAVOK 26/16 Q1014 NOSIG
Conditions at: NWWW (LA TONTOUTA NLLE, WS) observed 0230 UTC 14 July 2020
Temperature: 26.0°C (79°F)
Dewpoint: 16.0°C (61°F) [RH = 54%]
Pressure (altimeter): 29.94 inches Hg (1014.0 mb)
Winds: from the S (190 degrees) at 7 MPH (6 knots; 3.1 m/s)
Visibility: 6 or more miles (10+ km)
Ceiling: ceiling and visibility are OK
Clouds: unknown
Weather: no significant weather observed at this time

METAR text: NWWW 140200Z AUTO 19008KT 9999 FEW043 SCT160 26/17 Q1014 NOSIG
Conditions at: NWWW (LA TONTOUTA NLLE, WS) observed 0200 UTC 14 July 2020
Temperature: 26.0°C (79°F)
Dewpoint: 17.0°C (63°F) [RH = 58%]
Pressure (altimeter): 29.94 inches Hg (1014.0 mb)
Winds: from the S (190 degrees) at 9 MPH (8 knots; 4.1 m/s)
Visibility: 6 or more miles (10+ km)
Ceiling: at least 12,000 feet AGL
Clouds: few clouds at 4300 feet AGL
scattered clouds at 16000 feet AGL
Weather: no significant weather observed at this time

METAR text: NWWW 140130Z AUTO 25009KT 9999 BKN050 BKN230 27/17 Q1014 NOSIG
Conditions at: NWWW (LA TONTOUTA NLLE, WS) observed 0130 UTC 14 July 2020
Temperature: 27.0°C (81°F)
Dewpoint: 17.0°C (63°F) [RH = 54%]
Pressure (altimeter): 29.94 inches Hg (1014.0 mb)
Winds: from the WSW (250 degrees) at 10 MPH (9 knots; 4.6 m/s)
Visibility: 6 or more miles (10+ km)
Ceiling: 5000 feet AGL
Clouds: broken clouds at 5000 feet AGL
broken clouds at 23000 feet AGL
Weather: no significant weather observed at this time

METAR text: NWWW 140100Z AUTO 21006KT 140V260 9999 BKN052 27/17 Q1014 NOSIG
Conditions at: NWWW (LA TONTOUTA NLLE, WS) observed 0100 UTC 14 July 2020
Temperature: 27.0°C (81°F)
Dewpoint: 17.0°C (63°F) [RH = 54%]
Pressure (altimeter): 29.94 inches Hg (1014.0 mb)
Winds: from the SSW (210 degrees) at 7 MPH (6 knots; 3.1 m/s)
Visibility: 6 or more miles (10+ km)
Ceiling: 5200 feet AGL
Clouds: broken clouds at 5200 feet AGL
Weather: no significant weather observed at this time

Forecast for: NWWW (LA TONTOUTA NLLE, WS)
Text: TAF NWWW 151100Z 1512/1612 27004KT 9999 BKN016 BKN035
Forecast period: 1200 UTC 15 July 2020 to 1200 UTC 16 July 2020
Forecast type: FROM: standard forecast or significant change
Winds: from the W (270 degrees) at 5 MPH (4 knots; 2.1 m/s)
Visibility: 6 or more miles 10+ km)
Ceiling: 1600 feet AGL
Clouds: broken clouds at 1600 feet AGL
broken clouds at 3500 feet AGL
Weather: no significant weather forecast for this period
Text: TEMPO 1512/1517 SHRA BKN012
Forecast period: 1200 to 1700 UTC 15 July 2020
Forecast type: TEMPORARY: The following changes expected for less than half the time period
Visibility: missing
Ceiling: 1200 feet AGL
Clouds: broken clouds at 1200 feet AGL
Weather: SHRA  (rain showers)
Text: PROB40
Forecast period: 1200 to 1500 UTC 15 July 2020
Forecast type: TEMPORARY: The following changes expected for less than half the time period
Visibility: 2.49 miles (4.01 km)
Ceiling: 900 feet AGL
Clouds: broken clouds at 900 feet AGL
few clouds at 1800 feet AGL
broken clouds at 3000 feet AGL
Weather: SHRA  (rain showers)
Text: TEMPO 1512/1515 4000 SHRA BKN009 FEW018TCU BKN030
Forecast period: 1800 to 2000 UTC 15 July 2020
Forecast type: TEMPORARY: The following changes expected for less than half the time period
Visibility: 1.24 miles (2.00 km)
Ceiling: unknown
Clouds: missing
Weather: BR  (mist)